createdAt,value
2022-08-25T00:02:13.731Z,19.99
2022-08-25T00:04:40.519Z,20.00
2022-08-25T00:07:09.081Z,20.00
2022-08-25T00:09:35.757Z,20.00
2022-08-25T00:12:04.897Z,20.02
2022-08-25T00:14:34.217Z,20.03
2022-08-25T00:17:01.575Z,20.03
2022-08-25T00:19:31.923Z,20.02
2022-08-25T00:21:59.377Z,20.00
2022-08-25T00:24:26.609Z,19.98
2022-08-25T00:26:56.544Z,19.97
2022-08-25T00:29:25.669Z,19.95
2022-08-25T00:31:52.997Z,19.93
2022-08-25T00:34:23.092Z,19.92
2022-08-25T00:36:53.135Z,19.90
2022-08-25T00:39:21.917Z,19.88
2022-08-25T00:41:50.776Z,19.86
2022-08-25T00:44:19.118Z,19.83
2022-08-25T00:46:51.646Z,19.80
2022-08-25T00:49:25.447Z,19.77
2022-08-25T00:51:59.457Z,19.73
2022-08-25T00:54:34.527Z,19.72
2022-08-25T00:57:01.547Z,19.69
2022-08-25T00:59:28.787Z,19.68
2022-08-25T01:01:56.268Z,19.67
2022-08-25T01:04:25.233Z,19.65
2022-08-25T01:06:52.596Z,19.64
2022-08-25T01:09:20.062Z,19.62
2022-08-25T01:11:47.816Z,19.59
2022-08-25T01:14:18.028Z,19.56
2022-08-25T01:16:45.216Z,19.52
2022-08-25T01:19:15.153Z,19.50
2022-08-25T01:21:48.657Z,19.49
2022-08-25T01:25:13.959Z,19.49
2022-08-25T01:27:40.546Z,19.47
2022-08-25T01:30:07.605Z,19.46
2022-08-25T01:32:35.076Z,19.45
2022-08-25T01:35:01.699Z,19.44
2022-08-25T01:37:28.347Z,19.43
2022-08-25T01:39:54.927Z,19.42
2022-08-25T01:43:00.038Z,19.41
2022-08-25T01:45:27.351Z,19.39
2022-08-25T01:47:55.636Z,19.37
2022-08-25T01:50:22.275Z,19.34
2022-08-25T01:52:55.120Z,19.32
2022-08-25T01:55:22.986Z,19.29
2022-08-25T01:57:49.656Z,19.27
2022-08-25T02:00:19.209Z,19.25
2022-08-25T02:02:46.286Z,19.22
2022-08-25T02:05:19.328Z,19.21
2022-08-25T02:07:49.316Z,19.18
2022-08-25T02:10:15.957Z,19.16
2022-08-25T02:12:44.032Z,19.14
2022-08-25T02:15:11.076Z,19.12
2022-08-25T02:17:37.815Z,19.09
2022-08-25T02:20:08.742Z,19.05
2022-08-25T02:22:35.415Z,18.99
2022-08-25T02:25:02.237Z,18.95
2022-08-25T02:27:29.218Z,18.90
2022-08-25T02:29:56.056Z,18.87
2022-08-25T02:32:22.856Z,18.84
2022-08-25T02:34:49.494Z,18.82
2022-08-25T02:37:16.677Z,18.79
2022-08-25T02:39:43.176Z,18.79
2022-08-25T02:42:09.818Z,18.77
2022-08-25T02:44:37.479Z,18.75
2022-08-25T02:47:04.421Z,18.74
2022-08-25T02:49:32.017Z,18.74
2022-08-25T02:52:00.395Z,18.72
2022-08-25T02:54:28.658Z,18.71
2022-08-25T02:56:55.297Z,18.70
2022-08-25T02:59:22.436Z,18.67
2022-08-25T03:01:49.276Z,18.65
2022-08-25T03:04:17.336Z,18.62
2022-08-25T03:06:45.448Z,18.59
2022-08-25T03:09:12.580Z,18.57
2022-08-25T03:11:39.515Z,18.54
2022-08-25T03:14:08.917Z,18.50
2022-08-25T03:16:35.866Z,18.47
2022-08-25T03:19:04.355Z,18.45
2022-08-25T03:21:38.056Z,18.44
2022-08-25T03:24:06.836Z,18.43
2022-08-25T03:26:51.789Z,18.43
2022-08-25T03:29:18.555Z,18.43
2022-08-25T03:31:45.457Z,18.43
2022-08-25T03:34:16.501Z,18.44
2022-08-25T03:36:44.716Z,18.43
2022-08-25T03:39:11.876Z,18.44
2022-08-25T03:41:38.896Z,18.45
2022-08-25T03:44:06.875Z,18.47
2022-08-25T03:46:37.158Z,18.48
2022-08-25T03:49:05.406Z,18.48
2022-08-25T03:51:37.832Z,18.48
2022-08-25T03:54:05.928Z,18.48
2022-08-25T03:56:32.855Z,18.46
2022-08-25T03:59:00.415Z,18.44
2022-08-25T04:01:27.315Z,18.42
2022-08-25T04:03:54.615Z,18.41
2022-08-25T04:06:23.184Z,18.41
2022-08-25T04:08:52.387Z,18.40
2022-08-25T04:11:21.069Z,18.40
2022-08-25T04:13:48.855Z,18.39
2022-08-25T04:16:19.894Z,18.40
2022-08-25T04:18:47.663Z,18.41
2022-08-25T04:21:14.798Z,18.42
2022-08-25T04:23:44.092Z,18.43
2022-08-25T04:26:19.651Z,18.45
2022-08-25T04:28:47.306Z,18.47
2022-08-25T04:31:15.494Z,18.48
2022-08-25T04:33:42.856Z,18.50
2022-08-25T04:36:13.386Z,18.49
2022-08-25T04:38:42.420Z,18.49
2022-08-25T04:41:10.978Z,18.51
2022-08-25T04:43:38.901Z,18.52
2022-08-25T04:46:12.139Z,18.54
2022-08-25T04:48:40.061Z,18.57
2022-08-25T04:51:07.961Z,18.60
2022-08-25T04:53:34.517Z,18.64
2022-08-25T04:56:03.822Z,18.70
2022-08-25T04:58:31.232Z,18.74
2022-08-25T05:01:06.386Z,18.78
2022-08-25T05:03:33.579Z,18.82
2022-08-25T05:06:00.956Z,18.85
2022-08-25T05:08:28.431Z,18.88
2022-08-25T05:10:56.712Z,18.92
2022-08-25T05:13:26.639Z,18.96
2022-08-25T05:16:02.590Z,19.01
2022-08-25T05:18:31.663Z,19.05
2022-08-25T05:21:03.311Z,19.10
2022-08-25T05:23:30.991Z,19.16
2022-08-25T05:26:06.529Z,19.21
2022-08-25T05:28:34.392Z,19.26
2022-08-25T05:31:02.560Z,19.32
2022-08-25T05:33:30.588Z,19.39
2022-08-25T05:35:59.032Z,19.44
2022-08-25T05:38:25.670Z,19.51
2022-08-25T05:41:15.339Z,19.59
2022-08-25T05:43:43.584Z,19.65
2022-08-25T05:46:10.199Z,19.70
2022-08-25T05:48:36.739Z,19.74
2022-08-25T05:51:06.268Z,19.77
2022-08-25T05:53:34.372Z,19.82
2022-08-25T05:56:01.739Z,19.87
2022-08-25T05:58:29.466Z,19.92
2022-08-25T06:01:18.419Z,19.95
2022-08-25T06:03:47.349Z,19.98
2022-08-25T06:06:15.625Z,20.00
2022-08-25T06:08:45.722Z,20.04
2022-08-25T06:11:14.113Z,20.08
2022-08-25T06:13:41.056Z,20.16
2022-08-25T06:16:07.956Z,20.23
2022-08-25T06:18:35.237Z,20.35
2022-08-25T06:21:16.957Z,20.44
2022-08-25T06:23:44.292Z,20.53
2022-08-25T06:26:20.593Z,20.58
2022-08-25T06:28:50.357Z,20.65
2022-08-25T06:31:17.222Z,20.69
2022-08-25T06:33:44.705Z,20.72
2022-08-25T06:36:11.513Z,20.73
2022-08-25T06:38:38.254Z,20.73
2022-08-25T06:41:06.834Z,20.74
2022-08-25T06:43:33.871Z,20.76
2022-08-25T06:46:15.792Z,20.79
2022-08-25T06:48:43.239Z,20.85
2022-08-25T06:51:13.926Z,20.90
2022-08-25T06:53:42.232Z,20.94
2022-08-25T06:56:10.013Z,21.00
2022-08-25T06:58:37.260Z,21.07
2022-08-25T07:01:15.667Z,21.13
2022-08-25T07:03:46.908Z,21.20
2022-08-25T07:06:15.093Z,21.28
2022-08-25T07:08:46.747Z,21.38
2022-08-25T07:11:16.397Z,21.47
2022-08-25T07:13:45.129Z,21.56
2022-08-25T07:16:12.254Z,21.66
2022-08-25T07:18:39.158Z,21.77
2022-08-25T07:21:08.774Z,21.87
2022-08-25T07:23:37.049Z,22.00
2022-08-25T07:26:15.686Z,22.15
2022-08-25T07:28:48.919Z,22.30
2022-08-25T07:31:17.432Z,22.39
2022-08-25T07:34:03.677Z,22.44
2022-08-25T07:36:31.565Z,22.52
2022-08-25T07:38:58.973Z,22.59
2022-08-25T07:41:27.213Z,22.64
2022-08-25T07:43:54.039Z,22.68
2022-08-25T07:46:20.862Z,22.73
2022-08-25T07:48:53.235Z,22.78
2022-08-25T07:51:20.283Z,22.84
2022-08-25T07:53:46.931Z,22.90
2022-08-25T07:56:16.035Z,22.98
2022-08-25T07:58:43.439Z,23.08
2022-08-25T08:01:22.848Z,23.16
2022-08-25T08:03:51.540Z,23.21
2022-08-25T08:06:23.700Z,23.21
2022-08-25T08:08:54.576Z,23.21
2022-08-25T08:11:26.875Z,23.19
2022-08-25T08:13:55.662Z,23.24
2022-08-25T08:16:24.678Z,23.32
2022-08-25T08:18:52.075Z,23.39
2022-08-25T08:21:24.918Z,23.44
2022-08-25T08:23:58.126Z,23.55
2022-08-25T08:26:36.266Z,23.67
2022-08-25T08:29:08.696Z,23.78
2022-08-25T08:31:36.755Z,23.96
2022-08-25T08:34:04.003Z,24.14
2022-08-25T08:36:31.449Z,24.31
2022-08-25T08:38:58.158Z,24.46
2022-08-25T08:42:09.576Z,24.58
2022-08-25T08:44:32.531Z,24.65
2022-08-25T08:47:44.420Z,24.66
2022-08-25T08:50:27.677Z,24.76
2022-08-25T08:53:07.301Z,24.89
2022-08-25T08:56:01.837Z,25.04
2022-08-25T08:58:50.006Z,25.19
2022-08-25T09:01:26.295Z,25.32
2022-08-25T09:03:59.277Z,25.42
2022-08-25T09:06:32.166Z,25.53
2022-08-25T09:09:03.166Z,25.56
2022-08-25T09:11:42.722Z,25.59
2022-08-25T09:14:39.704Z,25.59
2022-08-25T09:17:26.506Z,25.57
2022-08-25T09:20:28.164Z,25.54
2022-08-25T09:23:26.849Z,25.54
2022-08-25T09:26:14.634Z,25.53
2022-08-25T09:28:51.262Z,25.54
2022-08-25T09:31:29.904Z,25.55
2022-08-25T09:33:58.436Z,25.56
2022-08-25T09:36:25.508Z,25.59
2022-08-25T09:38:52.558Z,25.58
2022-08-25T09:41:46.246Z,25.59
2022-08-25T09:44:19.425Z,25.61
2022-08-25T09:47:15.646Z,25.63
2022-08-25T09:49:49.153Z,25.67
2022-08-25T09:52:42.217Z,25.76
2022-08-25T09:55:09.272Z,25.86
2022-08-25T09:57:42.773Z,25.89
2022-08-25T10:00:14.465Z,25.94
2022-08-25T10:02:42.480Z,26.02
2022-08-25T10:05:25.874Z,26.13
2022-08-25T10:07:58.498Z,26.27
2022-08-25T10:10:34.648Z,26.36
2022-08-25T10:13:03.196Z,26.44
2022-08-25T10:15:36.510Z,26.53
2022-08-25T10:18:23.337Z,26.62
2022-08-25T10:21:09.899Z,26.66
2022-08-25T10:23:43.062Z,26.68
2022-08-25T10:26:16.722Z,26.72
2022-08-25T10:29:00.133Z,26.76
2022-08-25T10:31:41.600Z,26.85
2022-08-25T10:34:23.872Z,26.92
2022-08-25T10:37:15.473Z,26.93
2022-08-25T10:39:58.646Z,26.95
2022-08-25T10:42:39.166Z,26.95
2022-08-25T10:45:36.421Z,26.93
2022-08-25T10:49:01.032Z,26.95
2022-08-25T10:51:55.193Z,26.99
2022-08-25T10:54:42.524Z,27.01
2022-08-25T10:57:32.194Z,27.04
2022-08-25T11:00:23.259Z,27.09
2022-08-25T11:03:13.731Z,27.12
2022-08-25T11:05:46.280Z,27.16
2022-08-25T11:08:21.432Z,27.20
2022-08-25T11:11:11.518Z,27.19
2022-08-25T11:13:58.950Z,27.15
2022-08-25T11:16:53.585Z,27.15
2022-08-25T11:19:35.957Z,27.14
2022-08-25T11:22:15.582Z,27.12
2022-08-25T11:24:54.920Z,27.12
2022-08-25T11:27:24.326Z,27.15
2022-08-25T11:30:13.964Z,27.15
2022-08-25T11:32:45.240Z,27.22
2022-08-25T11:35:14.028Z,27.29
2022-08-25T11:38:02.829Z,27.34
2022-08-25T11:40:35.333Z,27.39
2022-08-25T11:43:11.171Z,27.41
2022-08-25T11:45:46.420Z,27.46
2022-08-25T11:48:35.961Z,27.49
2022-08-25T11:51:07.506Z,27.50
2022-08-25T11:53:39.047Z,27.52
2022-08-25T11:56:30.135Z,27.57
2022-08-25T11:58:57.703Z,27.61
2022-08-25T12:01:40.109Z,27.64
2022-08-25T12:04:30.936Z,27.67
2022-08-25T12:07:07.224Z,27.72
2022-08-25T12:09:54.529Z,27.80
2022-08-25T12:12:41.614Z,27.91
2022-08-25T12:15:42.392Z,28.02
2022-08-25T12:18:16.600Z,28.11
2022-08-25T12:20:57.861Z,28.18
2022-08-25T12:23:38.206Z,28.22
2022-08-25T12:26:20.608Z,28.29
2022-08-25T12:28:50.542Z,28.35
2022-08-25T12:31:29.360Z,28.44
2022-08-25T12:34:26.792Z,28.54
2022-08-25T12:37:06.472Z,28.64
2022-08-25T12:39:42.113Z,28.72
2022-08-25T12:42:28.709Z,28.78
2022-08-25T12:45:37.858Z,28.84
2022-08-25T12:48:34.380Z,28.84
2022-08-25T12:51:04.142Z,28.79
2022-08-25T12:53:53.766Z,28.76
2022-08-25T12:56:27.996Z,28.69
2022-08-25T12:59:21.508Z,28.62
2022-08-25T13:02:13.231Z,28.58
2022-08-25T13:05:15.221Z,28.59
2022-08-25T13:07:51.581Z,28.60
2022-08-25T13:10:42.493Z,28.63
2022-08-25T13:13:12.332Z,28.69
2022-08-25T13:15:44.915Z,28.76
2022-08-25T13:18:27.108Z,28.83
2022-08-25T13:21:18.363Z,28.94
2022-08-25T13:23:50.900Z,29.00
2022-08-25T13:26:27.210Z,29.02
2022-08-25T13:28:59.322Z,28.96
2022-08-25T13:31:30.255Z,28.85
2022-08-25T13:34:03.514Z,28.75
2022-08-25T13:37:05.222Z,28.67
2022-08-25T13:39:54.852Z,28.60
2022-08-25T13:42:23.997Z,28.63
2022-08-25T13:44:56.166Z,28.66
2022-08-25T13:47:43.688Z,28.72
2022-08-25T13:50:22.726Z,28.81
2022-08-25T13:52:57.955Z,28.92
2022-08-25T13:55:38.239Z,28.95
2022-08-25T13:58:39.255Z,28.94
2022-08-25T14:01:46.855Z,28.93
2022-08-25T14:04:29.370Z,28.92
2022-08-25T14:07:14.220Z,28.90
2022-08-25T14:09:46.868Z,28.92
2022-08-25T14:12:38.243Z,28.97
2022-08-25T14:15:27.512Z,29.04
2022-08-25T14:18:09.453Z,29.10
2022-08-25T14:20:53.803Z,29.16
2022-08-25T14:23:23.906Z,29.21
2022-08-25T14:25:58.832Z,29.25
2022-08-25T14:28:32.505Z,29.27
2022-08-25T14:31:06.956Z,29.26
2022-08-25T14:33:52.914Z,29.26
2022-08-25T14:36:20.929Z,29.26
2022-08-25T14:38:54.760Z,29.28
2022-08-25T14:41:23.749Z,29.29
2022-08-25T14:43:50.620Z,29.27
2022-08-25T14:46:25.352Z,29.25
2022-08-25T14:48:59.464Z,29.28
2022-08-25T14:51:29.845Z,29.31
2022-08-25T14:54:00.716Z,29.31
2022-08-25T14:56:27.679Z,29.28
2022-08-25T14:58:56.571Z,29.23
2022-08-25T15:01:28.707Z,29.16
2022-08-25T15:04:10.087Z,29.10
2022-08-25T15:06:41.545Z,29.02
2022-08-25T15:09:16.455Z,28.97
2022-08-25T15:11:50.608Z,28.92
2022-08-25T15:14:19.195Z,28.88
2022-08-25T15:16:57.402Z,28.85
2022-08-25T15:19:28.007Z,28.84
2022-08-25T15:21:57.795Z,28.85
2022-08-25T15:24:26.218Z,28.87
2022-08-25T15:26:56.308Z,28.88
2022-08-25T15:29:26.261Z,28.90
2022-08-25T15:31:53.305Z,28.91
2022-08-25T15:34:20.354Z,28.92
2022-08-25T15:36:48.005Z,28.92
2022-08-25T15:39:15.772Z,28.92
2022-08-25T15:41:49.357Z,28.89
2022-08-25T15:44:16.564Z,28.88
2022-08-25T15:46:49.688Z,28.88
2022-08-25T15:49:23.241Z,28.86
2022-08-25T15:51:54.580Z,28.83
2022-08-25T15:54:23.354Z,28.81
2022-08-25T15:56:52.034Z,28.79
2022-08-25T15:59:21.637Z,28.78
2022-08-25T16:01:52.908Z,28.77
2022-08-25T16:04:22.195Z,28.75
2022-08-25T16:06:52.036Z,28.76
2022-08-25T16:09:23.117Z,28.75
2022-08-25T16:11:56.722Z,28.73
2022-08-25T16:14:27.828Z,28.73
2022-08-25T16:16:58.242Z,28.73
2022-08-25T16:19:28.670Z,28.72
2022-08-25T16:21:55.886Z,28.75
2022-08-25T16:24:22.742Z,28.79
2022-08-25T16:26:50.412Z,28.83
2022-08-25T16:29:18.882Z,28.85
2022-08-25T16:31:53.302Z,28.84
2022-08-25T16:34:28.407Z,28.84
2022-08-25T16:36:55.902Z,28.85
2022-08-25T16:39:24.015Z,28.85
2022-08-25T16:41:51.953Z,28.83
2022-08-25T16:44:19.820Z,28.78
2022-08-25T16:46:53.730Z,28.74
2022-08-25T16:49:21.161Z,28.70
2022-08-25T16:51:56.578Z,28.67
2022-08-25T16:54:44.562Z,28.63
2022-08-25T16:57:12.720Z,28.59
2022-08-25T16:59:39.478Z,28.55
2022-08-25T17:02:07.103Z,28.51
2022-08-25T17:04:34.372Z,28.45
2022-08-25T17:07:01.709Z,28.37
2022-08-25T17:09:29.658Z,28.30
2022-08-25T17:11:57.060Z,28.23
2022-08-25T17:14:25.655Z,28.17
2022-08-25T17:16:55.774Z,28.08
2022-08-25T17:19:25.910Z,28.00
2022-08-25T17:21:54.530Z,27.94
2022-08-25T17:24:29.649Z,27.87
2022-08-25T17:26:57.098Z,27.81
2022-08-25T17:29:24.419Z,27.74
2022-08-25T17:31:52.910Z,27.67
2022-08-25T17:34:23.058Z,27.59
2022-08-25T17:36:50.668Z,27.50
2022-08-25T17:39:22.047Z,27.44
2022-08-25T17:41:50.842Z,27.42
2022-08-25T17:44:19.411Z,27.36
2022-08-25T17:46:47.898Z,27.24
2022-08-25T17:49:18.512Z,27.01
2022-08-25T17:51:45.556Z,26.77
2022-08-25T17:54:12.910Z,26.53
2022-08-25T17:56:39.756Z,26.29
2022-08-25T17:59:06.594Z,26.11
2022-08-25T18:01:40.273Z,25.98
2022-08-25T18:04:16.901Z,25.87
2022-08-25T18:06:45.036Z,25.78
2022-08-25T18:09:11.644Z,25.73
2022-08-25T18:11:38.506Z,25.68
2022-08-25T18:14:06.680Z,25.64
2022-08-25T18:16:38.131Z,25.57
2022-08-25T18:19:06.440Z,25.51
2022-08-25T18:21:36.753Z,25.46
2022-08-25T18:24:04.463Z,25.37
2022-08-25T18:26:32.691Z,25.28
2022-08-25T18:29:00.132Z,25.17
2022-08-25T18:31:28.318Z,25.06
2022-08-25T18:33:56.503Z,24.90
2022-08-25T18:36:23.532Z,24.71
2022-08-25T18:39:09.205Z,24.55
2022-08-25T18:41:40.071Z,24.39
2022-08-25T18:44:08.556Z,24.23
2022-08-25T18:46:39.318Z,24.09
2022-08-25T18:49:06.513Z,23.98
2022-08-25T18:51:33.672Z,23.92
2022-08-25T18:54:01.562Z,23.90
2022-08-25T18:56:29.512Z,23.89
2022-08-25T18:58:57.769Z,23.90
2022-08-25T19:01:25.617Z,23.90
2022-08-25T19:03:53.515Z,23.90
2022-08-25T19:06:21.192Z,23.89
2022-08-25T19:08:48.731Z,23.88
2022-08-25T19:11:16.813Z,23.85
2022-08-25T19:13:44.674Z,23.84
2022-08-25T19:16:20.192Z,23.82
2022-08-25T19:18:49.055Z,23.80
2022-08-25T19:21:22.711Z,23.78
2022-08-25T19:23:51.272Z,23.75
2022-08-25T19:26:20.912Z,23.74
2022-08-25T19:28:49.846Z,23.73
2022-08-25T19:31:22.340Z,23.75
2022-08-25T19:33:51.883Z,23.73
2022-08-25T19:36:23.080Z,23.71
2022-08-25T19:38:51.843Z,23.68
2022-08-25T19:41:21.248Z,23.64
2022-08-25T19:43:56.657Z,23.59
2022-08-25T19:46:32.883Z,23.56
2022-08-25T19:49:08.504Z,23.54
2022-08-25T19:51:44.066Z,23.53
2022-08-25T19:54:16.496Z,23.50
2022-08-25T19:56:54.490Z,23.44
2022-08-25T19:59:25.391Z,23.33
2022-08-25T20:01:53.725Z,23.17
2022-08-25T20:04:20.940Z,23.02
2022-08-25T20:06:51.786Z,22.89
2022-08-25T20:09:35.708Z,22.81
2022-08-25T20:12:06.900Z,22.73
2022-08-25T20:14:34.910Z,22.69
2022-08-25T20:17:02.601Z,22.62
2022-08-25T20:19:31.070Z,22.51
2022-08-25T20:21:59.152Z,22.40
2022-08-25T20:24:45.353Z,22.29
2022-08-25T20:27:12.806Z,22.21
2022-08-25T20:29:40.469Z,22.16
2022-08-25T20:32:12.336Z,22.13
2022-08-25T20:34:41.359Z,22.10
2022-08-25T20:37:09.413Z,22.06
2022-08-25T20:39:37.286Z,22.03
2022-08-25T20:42:05.436Z,22.02
2022-08-25T20:44:39.939Z,22.00
2022-08-25T20:47:10.544Z,21.98
2022-08-25T20:49:39.520Z,21.95
2022-08-25T20:52:07.792Z,21.90
2022-08-25T20:54:35.011Z,21.85
2022-08-25T20:57:02.568Z,21.84
2022-08-25T20:59:29.533Z,21.82
2022-08-25T21:01:56.920Z,21.82
2022-08-25T21:04:26.767Z,21.81
2022-08-25T21:06:53.515Z,21.80
2022-08-25T21:09:23.441Z,21.79
2022-08-25T21:11:52.921Z,21.78
2022-08-25T21:14:20.694Z,21.75
2022-08-25T21:16:48.644Z,21.72
2022-08-25T21:19:17.900Z,21.70
2022-08-25T21:21:59.886Z,21.68
2022-08-25T21:24:28.051Z,21.65
2022-08-25T21:26:57.536Z,21.61
2022-08-25T21:29:25.645Z,21.60
2022-08-25T21:31:58.257Z,21.59
2022-08-25T21:34:25.752Z,21.58
2022-08-25T21:36:57.968Z,21.58
2022-08-25T21:39:27.594Z,21.57
2022-08-25T21:41:56.037Z,21.56
2022-08-25T21:44:23.372Z,21.54
2022-08-25T21:46:54.268Z,21.50
2022-08-25T21:49:23.912Z,21.46
2022-08-25T21:52:00.401Z,21.44
2022-08-25T21:54:28.699Z,21.40
2022-08-25T21:57:04.684Z,21.36
2022-08-25T21:59:33.798Z,21.33
2022-08-25T22:02:07.563Z,21.30
2022-08-25T22:04:34.857Z,21.29
2022-08-25T22:07:02.532Z,21.27
2022-08-25T22:09:30.391Z,21.25
2022-08-25T22:11:58.727Z,21.24
2022-08-25T22:14:26.735Z,21.23
2022-08-25T22:16:54.476Z,21.22
2022-08-25T22:19:22.828Z,21.22
2022-08-25T22:21:50.844Z,21.21
2022-08-25T22:24:19.031Z,21.22
2022-08-25T22:26:47.405Z,21.23
2022-08-25T22:29:20.736Z,21.21
2022-08-25T22:31:59.313Z,21.20
2022-08-25T22:34:32.622Z,21.18
2022-08-25T22:37:03.873Z,21.18
2022-08-25T22:39:31.721Z,21.18
2022-08-25T22:42:00.320Z,21.19
2022-08-25T22:44:26.853Z,21.19
2022-08-25T22:46:53.801Z,21.19
2022-08-25T22:49:21.653Z,21.20
2022-08-25T22:51:49.734Z,21.19
2022-08-25T22:54:17.991Z,21.17
2022-08-25T22:56:45.696Z,21.16
2022-08-25T22:59:13.668Z,21.14
2022-08-25T23:01:41.911Z,21.12
2022-08-25T23:04:09.252Z,21.10
2022-08-25T23:06:37.957Z,21.08
2022-08-25T23:09:07.651Z,21.07
2022-08-25T23:11:35.572Z,21.07
2022-08-25T23:14:09.948Z,21.06
2022-08-25T23:16:41.963Z,21.05
2022-08-25T23:19:10.612Z,21.03
2022-08-25T23:21:56.844Z,20.97
2022-08-25T23:24:29.382Z,20.93
2022-08-25T23:27:01.437Z,20.88
2022-08-25T23:29:29.631Z,20.87
2022-08-25T23:31:57.433Z,20.85
2022-08-25T23:34:24.916Z,20.83
2022-08-25T23:36:52.175Z,20.81
2022-08-25T23:39:19.252Z,20.79
2022-08-25T23:41:50.014Z,20.77
2022-08-25T23:44:18.584Z,20.76
2022-08-25T23:46:47.475Z,20.73
2022-08-25T23:49:18.491Z,20.70
2022-08-25T23:51:50.223Z,20.67
2022-08-25T23:54:20.352Z,20.62
2022-08-25T23:56:51.766Z,20.59
2022-08-25T23:59:24.039Z,20.55
